createdAt,value
2016-07-18T00:00:04.781Z,1017.7
2016-07-18T00:00:14.776Z,1017.69
2016-07-18T00:00:24.772Z,1017.72
2016-07-18T00:00:34.766Z,1017.66
2016-07-18T00:00:44.758Z,1017.67
2016-07-18T00:00:54.755Z,1017.64
2016-07-18T00:01:04.749Z,1017.72
2016-07-18T00:01:14.743Z,1017.67
2016-07-18T00:01:24.740Z,1017.68
2016-07-18T00:01:34.735Z,1017.66
2016-07-18T00:01:44.729Z,1017.64
2016-07-18T00:01:54.727Z,1017.65
2016-07-18T00:02:04.723Z,1017.65
2016-07-18T00:02:14.716Z,1017.67
2016-07-18T00:02:24.713Z,1017.69
2016-07-18T00:02:34.707Z,1017.67
2016-07-18T00:02:44.702Z,1017.62
2016-07-18T00:02:54.697Z,1017.63
2016-07-18T00:03:04.692Z,1017.64
2016-07-18T00:03:14.688Z,1017.69
2016-07-18T00:03:24.685Z,1017.68
2016-07-18T00:03:34.682Z,1017.68
2016-07-18T00:03:44.677Z,1017.69
2016-07-18T00:03:54.671Z,1017.7
2016-07-18T00:04:04.666Z,1017.71
2016-07-18T00:04:14.658Z,1017.71
2016-07-18T00:04:24.654Z,1017.71
2016-07-18T00:04:34.653Z,1017.73
2016-07-18T00:04:44.646Z,1017.7
2016-07-18T00:04:54.638Z,1017.71
2016-07-18T00:05:04.638Z,1017.71
2016-07-18T00:05:14.631Z,1017.74
2016-07-18T00:05:24.633Z,1017.73
2016-07-18T00:05:34.621Z,1017.7
2016-07-18T00:05:44.617Z,1017.71
2016-07-18T00:05:54.612Z,1017.72
2016-07-18T00:06:04.608Z,1017.72
2016-07-18T00:06:14.603Z,1017.74
2016-07-18T00:06:24.599Z,1017.7
2016-07-18T00:06:34.594Z,1017.72
2016-07-18T00:06:44.590Z,1017.68
2016-07-18T00:06:54.584Z,1017.76
2016-07-18T00:07:04.581Z,1017.71
2016-07-18T00:07:14.575Z,1017.77
2016-07-18T00:07:24.577Z,1017.73
2016-07-18T00:07:34.567Z,1017.69
2016-07-18T00:07:44.562Z,1017.71
2016-07-18T00:07:54.559Z,1017.73
2016-07-18T00:08:04.551Z,1017.72
2016-07-18T00:08:14.547Z,1017.73
2016-07-18T00:08:24.544Z,1017.69
2016-07-18T00:08:34.539Z,1017.68
2016-07-18T00:08:44.531Z,1017.77
2016-07-18T00:08:54.527Z,1017.73
2016-07-18T00:09:04.521Z,1017.71
2016-07-18T00:09:14.518Z,1017.71
2016-07-18T00:09:24.518Z,1017.7
2016-07-18T00:09:34.508Z,1017.77
2016-07-18T00:09:44.503Z,1017.71
2016-07-18T00:09:54.499Z,1017.69
2016-07-18T00:10:04.493Z,1017.7
2016-07-18T00:10:14.490Z,1017.69
2016-07-18T00:10:24.484Z,1017.68
2016-07-18T00:10:34.480Z,1017.7
2016-07-18T00:10:44.475Z,1017.71
2016-07-18T00:10:54.471Z,1017.69
2016-07-18T00:11:04.469Z,1017.72
2016-07-18T00:11:15.192Z,1017.67
2016-07-18T00:11:24.456Z,1017.68
2016-07-18T00:11:34.454Z,1017.65
2016-07-18T00:11:44.447Z,1017.61
2016-07-18T00:11:54.444Z,1017.66
2016-07-18T00:12:04.436Z,1017.71
2016-07-18T00:12:14.432Z,1017.69
2016-07-18T00:12:24.427Z,1017.72
2016-07-18T00:12:34.423Z,1017.66
2016-07-18T00:12:44.420Z,1017.7
2016-07-18T00:12:54.415Z,1017.7
2016-07-18T00:13:04.409Z,1017.67
2016-07-18T00:13:14.402Z,1017.64
2016-07-18T00:13:25.129Z,1017.65
2016-07-18T00:13:34.394Z,1017.67
2016-07-18T00:13:44.390Z,1017.7
2016-07-18T00:13:54.385Z,1017.65
2016-07-18T00:14:04.380Z,1017.68
2016-07-18T00:14:15.111Z,1017.68
2016-07-18T00:14:24.377Z,1017.67
2016-07-18T00:14:34.366Z,1017.67
2016-07-18T00:14:44.363Z,1017.69
2016-07-18T00:14:54.357Z,1017.71
2016-07-18T00:15:04.353Z,1017.67
2016-07-18T00:15:14.354Z,1017.63
2016-07-18T00:15:24.343Z,1017.65
2016-07-18T00:15:34.339Z,1017.66
2016-07-18T00:15:44.333Z,1017.67
2016-07-18T00:15:54.329Z,1017.68
2016-07-18T00:16:04.324Z,1017.68
2016-07-18T00:16:14.320Z,1017.69
2016-07-18T00:16:25.043Z,1017.68
2016-07-18T00:16:34.309Z,1017.68
2016-07-18T00:16:44.303Z,1017.64
2016-07-18T00:16:54.301Z,1017.65
2016-07-18T00:17:04.295Z,1017.67
2016-07-18T00:17:14.288Z,1017.69
2016-07-18T00:17:24.288Z,1017.67
2016-07-18T00:17:34.283Z,1017.7
2016-07-18T00:17:44.280Z,1017.71
2016-07-18T00:17:54.273Z,1017.68
2016-07-18T00:18:04.268Z,1017.65
2016-07-18T00:18:14.263Z,1017.69
2016-07-18T00:18:24.260Z,1017.66
2016-07-18T00:18:34.253Z,1017.65
2016-07-18T00:18:44.249Z,1017.71
2016-07-18T00:18:54.242Z,1017.7
2016-07-18T00:19:04.240Z,1017.68
2016-07-18T00:19:14.233Z,1017.66
2016-07-18T00:19:24.230Z,1017.72
2016-07-18T00:19:34.223Z,1017.69
2016-07-18T00:19:44.220Z,1017.66
2016-07-18T00:19:54.213Z,1017.75
2016-07-18T00:20:04.211Z,1017.7
2016-07-18T00:20:14.204Z,1017.67
2016-07-18T00:20:24.198Z,1017.72
2016-07-18T00:20:34.195Z,1017.66
2016-07-18T00:20:44.190Z,1017.71
2016-07-18T00:20:54.195Z,1017.71
2016-07-18T00:21:04.181Z,1017.72
2016-07-18T00:21:14.178Z,1017.7
2016-07-18T00:21:24.171Z,1017.71
2016-07-18T00:21:34.168Z,1017.74
2016-07-18T00:21:44.164Z,1017.69
2016-07-18T00:21:54.159Z,1017.7
2016-07-18T00:22:04.155Z,1017.72
2016-07-18T00:22:14.150Z,1017.73
2016-07-18T00:22:24.145Z,1017.72
2016-07-18T00:22:34.139Z,1017.72
2016-07-18T00:22:44.135Z,1017.68
2016-07-18T00:22:54.129Z,1017.72
2016-07-18T00:23:04.124Z,1017.76
2016-07-18T00:23:14.127Z,1017.75
2016-07-18T00:23:24.118Z,1017.75
2016-07-18T00:23:34.838Z,1017.74
2016-07-18T00:23:44.105Z,1017.73
2016-07-18T00:23:54.101Z,1017.73
2016-07-18T00:24:04.095Z,1017.72
2016-07-18T00:24:14.092Z,1017.72
2016-07-18T00:24:24.086Z,1017.72
2016-07-18T00:24:34.081Z,1017.72
2016-07-18T00:24:44.082Z,1017.69
2016-07-18T00:24:54.074Z,1017.73
2016-07-18T00:25:04.069Z,1017.76
2016-07-18T00:25:14.064Z,1017.7
2016-07-18T00:25:24.059Z,1017.74
2016-07-18T00:25:34.055Z,1017.77
2016-07-18T00:25:44.050Z,1017.75
2016-07-18T00:25:54.047Z,1017.73
2016-07-18T00:26:04.041Z,1017.71
2016-07-18T00:26:14.036Z,1017.69
2016-07-18T00:26:24.031Z,1017.71
2016-07-18T00:26:34.027Z,1017.73
2016-07-18T00:26:44.022Z,1017.7
2016-07-18T00:26:54.014Z,1017.73
2016-07-18T00:27:04.012Z,1017.74
2016-07-18T00:27:14.004Z,1017.78
2016-07-18T00:27:23.999Z,1017.73
2016-07-18T00:27:33.993Z,1017.75
2016-07-18T00:27:43.991Z,1017.73
2016-07-18T00:27:53.987Z,1017.7
2016-07-18T00:28:03.981Z,1017.73
2016-07-18T00:28:13.976Z,1017.75
2016-07-18T00:28:23.972Z,1017.7
2016-07-18T00:28:33.967Z,1017.71
2016-07-18T00:28:43.964Z,1017.67
2016-07-18T00:28:53.958Z,1017.77
2016-07-18T00:29:03.954Z,1017.74
2016-07-18T00:29:13.948Z,1017.74
2016-07-18T00:29:23.946Z,1017.72
2016-07-18T00:29:33.941Z,1017.74
2016-07-18T00:29:43.935Z,1017.73
2016-07-18T00:29:53.931Z,1017.68
2016-07-18T00:30:03.926Z,1017.71
2016-07-18T00:30:13.921Z,1017.71
2016-07-18T00:30:23.915Z,1017.71
2016-07-18T00:30:33.912Z,1017.74
2016-07-18T00:30:43.907Z,1017.72
2016-07-18T00:30:53.900Z,1017.75
2016-07-18T00:31:03.894Z,1017.72
2016-07-18T00:31:13.896Z,1017.74
2016-07-18T00:31:23.888Z,1017.71
2016-07-18T00:31:33.882Z,1017.7
2016-07-18T00:31:43.886Z,1017.72
2016-07-18T00:31:53.872Z,1017.69
2016-07-18T00:32:03.869Z,1017.7
2016-07-18T00:32:13.861Z,1017.75
2016-07-18T00:32:23.859Z,1017.7
2016-07-18T00:32:33.855Z,1017.7
2016-07-18T00:32:43.854Z,1017.72
2016-07-18T00:32:53.846Z,1017.68
2016-07-18T00:33:04.570Z,1017.72
2016-07-18T00:33:13.837Z,1017.67
2016-07-18T00:33:23.842Z,1017.68
2016-07-18T00:33:33.825Z,1017.75
2016-07-18T00:33:43.821Z,1017.69
2016-07-18T00:33:53.817Z,1017.71
2016-07-18T00:34:03.813Z,1017.69
2016-07-18T00:34:13.806Z,1017.68
2016-07-18T00:34:23.805Z,1017.67
2016-07-18T00:34:33.798Z,1017.69
2016-07-18T00:34:43.793Z,1017.67
2016-07-18T00:34:53.788Z,1017.68
2016-07-18T00:35:03.781Z,1017.69
2016-07-18T00:35:13.777Z,1017.7
2016-07-18T00:35:23.772Z,1017.67
2016-07-18T00:35:33.770Z,1017.67
2016-07-18T00:35:43.764Z,1017.7
2016-07-18T00:35:53.756Z,1017.67
2016-07-18T00:36:03.754Z,1017.7
2016-07-18T00:36:13.750Z,1017.7
2016-07-18T00:36:23.744Z,1017.68
2016-07-18T00:36:33.740Z,1017.7
2016-07-18T00:36:43.739Z,1017.67
2016-07-18T00:36:53.733Z,1017.67
2016-07-18T00:37:03.726Z,1017.67
2016-07-18T00:37:13.721Z,1017.67
2016-07-18T00:37:23.717Z,1017.63
2016-07-18T00:37:33.713Z,1017.67
2016-07-18T00:37:43.712Z,1017.64
2016-07-18T00:37:53.702Z,1017.65
2016-07-18T00:38:03.695Z,1017.65
2016-07-18T00:38:13.692Z,1017.7
2016-07-18T00:38:23.687Z,1017.67
2016-07-18T00:38:33.683Z,1017.67
2016-07-18T00:38:43.678Z,1017.66
2016-07-18T00:38:53.671Z,1017.69
2016-07-18T00:39:03.669Z,1017.7
2016-07-18T00:39:13.669Z,1017.63
2016-07-18T00:39:23.659Z,1017.7
2016-07-18T00:39:33.654Z,1017.65
2016-07-18T00:39:43.651Z,1017.69
2016-07-18T00:39:53.645Z,1017.65
2016-07-18T00:40:03.641Z,1017.64
2016-07-18T00:40:13.637Z,1017.66
2016-07-18T00:40:23.632Z,1017.71
2016-07-18T00:40:33.628Z,1017.64
2016-07-18T00:40:43.624Z,1017.67
2016-07-18T00:40:53.624Z,1017.69
2016-07-18T00:41:03.613Z,1017.71
2016-07-18T00:41:13.606Z,1017.7
2016-07-18T00:41:23.603Z,1017.71
2016-07-18T00:41:33.595Z,1017.65
2016-07-18T00:41:43.592Z,1017.69
2016-07-18T00:41:53.590Z,1017.65
2016-07-18T00:42:03.583Z,1017.7
2016-07-18T00:42:13.576Z,1017.72
2016-07-18T00:42:23.574Z,1017.74
2016-07-18T00:42:33.567Z,1017.66
2016-07-18T00:42:43.565Z,1017.72
2016-07-18T00:42:53.558Z,1017.72
2016-07-18T00:43:03.555Z,1017.73
2016-07-18T00:43:13.550Z,1017.74
2016-07-18T00:43:23.546Z,1017.7
2016-07-18T00:43:33.541Z,1017.74
2016-07-18T00:43:43.536Z,1017.71
2016-07-18T00:43:53.531Z,1017.72
2016-07-18T00:44:03.529Z,1017.72
2016-07-18T00:44:13.522Z,1017.75
2016-07-18T00:44:23.519Z,1017.77
2016-07-18T00:44:33.512Z,1017.7
2016-07-18T00:44:43.510Z,1017.73
2016-07-18T00:44:53.504Z,1017.74
2016-07-18T00:45:03.498Z,1017.72
2016-07-18T00:45:13.490Z,1017.73
2016-07-18T00:45:23.490Z,1017.76
2016-07-18T00:45:33.481Z,1017.73
2016-07-18T00:45:43.476Z,1017.75
2016-07-18T00:45:53.474Z,1017.78
2016-07-18T00:46:03.467Z,1017.77
2016-07-18T00:46:13.462Z,1017.73
2016-07-18T00:46:23.460Z,1017.66
2016-07-18T00:46:33.455Z,1017.75
2016-07-18T00:46:43.450Z,1017.69
2016-07-18T00:46:53.444Z,1017.74
2016-07-18T00:47:03.440Z,1017.72
2016-07-18T00:47:13.436Z,1017.69
2016-07-18T00:47:23.430Z,1017.68
2016-07-18T00:47:33.429Z,1017.72
2016-07-18T00:47:43.421Z,1017.76
2016-07-18T00:47:53.416Z,1017.72
2016-07-18T00:48:03.414Z,1017.72
2016-07-18T00:48:13.407Z,1017.66
2016-07-18T00:48:23.410Z,1017.71
2016-07-18T00:48:33.398Z,1017.67
2016-07-18T00:48:43.403Z,1017.72
2016-07-18T00:48:53.386Z,1017.72
2016-07-18T00:49:03.382Z,1017.73
2016-07-18T00:49:13.375Z,1017.68
2016-07-18T00:49:23.378Z,1017.7
2016-07-18T00:49:33.368Z,1017.67
2016-07-18T00:49:43.369Z,1017.69
2016-07-18T00:49:53.359Z,1017.7
2016-07-18T00:50:03.355Z,1017.64
2016-07-18T00:50:13.349Z,1017.72
2016-07-18T00:50:23.343Z,1017.67
2016-07-18T00:50:33.340Z,1017.65
2016-07-18T00:50:43.343Z,1017.66
2016-07-18T00:50:53.336Z,1017.67
2016-07-18T00:51:03.328Z,1017.71
2016-07-18T00:51:13.324Z,1017.63
2016-07-18T00:51:23.320Z,1017.7
2016-07-18T00:51:33.314Z,1017.68
2016-07-18T00:51:43.306Z,1017.65
2016-07-18T00:51:53.305Z,1017.65
2016-07-18T00:52:04.757Z,1017.7
2016-07-18T00:52:13.293Z,1017.63
2016-07-18T00:52:23.285Z,1017.62
2016-07-18T00:52:33.283Z,1017.67
2016-07-18T00:52:43.278Z,1017.6
2016-07-18T00:52:53.273Z,1017.67
2016-07-18T00:53:03.269Z,1017.62
2016-07-18T00:53:13.263Z,1017.66
2016-07-18T00:53:23.260Z,1017.66
2016-07-18T00:53:33.253Z,1017.65
2016-07-18T00:53:43.251Z,1017.6
2016-07-18T00:53:53.245Z,1017.67
2016-07-18T00:54:03.241Z,1017.65
2016-07-18T00:54:13.238Z,1017.62
2016-07-18T00:54:23.231Z,1017.62
2016-07-18T00:54:33.225Z,1017.6
2016-07-18T00:54:43.223Z,1017.6
2016-07-18T00:54:53.218Z,1017.62
2016-07-18T00:55:03.213Z,1017.59
2016-07-18T00:55:13.210Z,1017.6
2016-07-18T00:55:23.200Z,1017.62
2016-07-18T00:55:33.199Z,1017.58
2016-07-18T00:55:43.195Z,1017.56
2016-07-18T00:55:53.188Z,1017.58
2016-07-18T00:56:03.183Z,1017.59
2016-07-18T00:56:13.178Z,1017.61
2016-07-18T00:56:23.175Z,1017.57
2016-07-18T00:56:33.167Z,1017.61
2016-07-18T00:56:43.161Z,1017.63
2016-07-18T00:56:53.160Z,1017.74
2016-07-18T00:57:03.155Z,1017.65
2016-07-18T00:57:13.150Z,1017.61
2016-07-18T00:57:23.145Z,1017.6
2016-07-18T00:57:33.140Z,1017.63
2016-07-18T00:57:43.136Z,1017.59
2016-07-18T00:57:53.132Z,1017.64
2016-07-18T00:58:03.127Z,1017.62
2016-07-18T00:58:13.123Z,1017.64
2016-07-18T00:58:23.119Z,1017.61
2016-07-18T00:58:33.114Z,1017.62
2016-07-18T00:58:43.107Z,1017.63
2016-07-18T00:58:53.106Z,1017.63
2016-07-18T00:59:03.106Z,1017.6
2016-07-18T00:59:13.094Z,1017.61
2016-07-18T00:59:23.087Z,1017.63
2016-07-18T00:59:33.084Z,1017.65
2016-07-18T00:59:43.077Z,1017.6
2016-07-18T00:59:53.073Z,1017.62
2016-07-18T01:00:03.818Z,1017.62
2016-07-18T01:00:13.062Z,1017.62
2016-07-18T01:00:23.066Z,1017.59
2016-07-18T01:00:33.055Z,1017.63
2016-07-18T01:00:43.049Z,1017.64
2016-07-18T01:00:53.046Z,1017.57
2016-07-18T01:01:03.042Z,1017.63
2016-07-18T01:01:13.035Z,1017.65
2016-07-18T01:01:23.034Z,1017.64
2016-07-18T01:01:33.027Z,1017.61
2016-07-18T01:01:43.023Z,1017.7
2016-07-18T01:01:53.017Z,1017.65
2016-07-18T01:02:03.013Z,1017.65
2016-07-18T01:02:13.009Z,1017.65
2016-07-18T01:02:23.002Z,1017.67
2016-07-18T01:02:33.000Z,1017.61
2016-07-18T01:02:42.993Z,1017.7
2016-07-18T01:02:52.988Z,1017.68
2016-07-18T01:03:02.983Z,1017.73
2016-07-18T01:03:12.977Z,1017.7
2016-07-18T01:03:22.973Z,1017.65
2016-07-18T01:03:32.969Z,1017.67
2016-07-18T01:03:42.965Z,1017.67
2016-07-18T01:03:52.959Z,1017.66
2016-07-18T01:04:02.954Z,1017.69
2016-07-18T01:04:12.953Z,1017.64
2016-07-18T01:04:22.945Z,1017.69
2016-07-18T01:04:32.941Z,1017.7
2016-07-18T01:04:42.934Z,1017.67
2016-07-18T01:04:52.932Z,1017.68
2016-07-18T01:05:02.927Z,1017.68
2016-07-18T01:05:12.922Z,1017.68
2016-07-18T01:05:22.919Z,1017.69
2016-07-18T01:05:32.913Z,1017.67
2016-07-18T01:05:42.906Z,1017.64
2016-07-18T01:05:53.630Z,1017.67
2016-07-18T01:06:02.899Z,1017.68
2016-07-18T01:06:12.892Z,1017.68
2016-07-18T01:06:22.887Z,1017.68
2016-07-18T01:06:32.883Z,1017.67
2016-07-18T01:06:42.877Z,1017.7
2016-07-18T01:06:52.871Z,1017.7
2016-07-18T01:07:02.868Z,1017.69
2016-07-18T01:07:12.863Z,1017.72
2016-07-18T01:07:22.861Z,1017.66
2016-07-18T01:07:32.860Z,1017.67
2016-07-18T01:07:42.849Z,1017.7
2016-07-18T01:07:52.846Z,1017.67
2016-07-18T01:08:02.839Z,1017.68
2016-07-18T01:08:12.836Z,1017.69
2016-07-18T01:08:22.829Z,1017.68
2016-07-18T01:08:32.826Z,1017.65
2016-07-18T01:08:42.822Z,1017.69
2016-07-18T01:08:52.816Z,1017.63
2016-07-18T01:09:02.814Z,1017.64
2016-07-18T01:09:12.807Z,1017.71
2016-07-18T01:09:22.802Z,1017.67
2016-07-18T01:09:32.797Z,1017.63
2016-07-18T01:09:42.795Z,1017.65
2016-07-18T01:09:52.787Z,1017.65
2016-07-18T01:10:02.789Z,1017.68
2016-07-18T01:10:12.780Z,1017.68
2016-07-18T01:10:22.771Z,1017.65
2016-07-18T01:10:32.769Z,1017.66
2016-07-18T01:10:42.763Z,1017.62
2016-07-18T01:10:52.759Z,1017.69
2016-07-18T01:11:02.752Z,1017.69
2016-07-18T01:11:12.747Z,1017.65
2016-07-18T01:11:22.744Z,1017.63
2016-07-18T01:11:32.739Z,1017.63
2016-07-18T01:11:42.735Z,1017.64
2016-07-18T01:11:52.730Z,1017.63
2016-07-18T01:12:02.728Z,1017.63
2016-07-18T01:12:12.722Z,1017.66
2016-07-18T01:12:22.714Z,1017.69
2016-07-18T01:12:32.710Z,1017.62
2016-07-18T01:12:42.706Z,1017.64
2016-07-18T01:12:52.702Z,1017.64
2016-07-18T01:13:02.697Z,1017.67
2016-07-18T01:13:12.698Z,1017.63
2016-07-18T01:13:22.687Z,1017.69
2016-07-18T01:13:32.682Z,1017.61
2016-07-18T01:13:42.677Z,1017.63
2016-07-18T01:13:52.674Z,1017.65
2016-07-18T01:14:02.667Z,1017.61
2016-07-18T01:14:12.660Z,1017.61
2016-07-18T01:14:22.657Z,1017.61
2016-07-18T01:14:32.653Z,1017.64
2016-07-18T01:14:42.651Z,1017.65
2016-07-18T01:14:52.643Z,1017.6
2016-07-18T01:15:02.639Z,1017.61
2016-07-18T01:15:12.634Z,1017.59
2016-07-18T01:15:22.629Z,1017.64
2016-07-18T01:15:32.624Z,1017.59
2016-07-18T01:15:42.622Z,1017.59
2016-07-18T01:15:52.615Z,1017.58
2016-07-18T01:16:02.613Z,1017.61
2016-07-18T01:16:12.604Z,1017.62
2016-07-18T01:16:22.603Z,1017.63
2016-07-18T01:16:32.597Z,1017.64
2016-07-18T01:16:42.593Z,1017.62
2016-07-18T01:16:52.586Z,1017.59
2016-07-18T01:17:02.581Z,1017.64
2016-07-18T01:17:12.577Z,1017.63
2016-07-18T01:17:22.571Z,1017.58
2016-07-18T01:17:32.567Z,1017.64
2016-07-18T01:17:42.564Z,1017.64
2016-07-18T01:17:52.557Z,1017.61
2016-07-18T01:18:02.552Z,1017.59
2016-07-18T01:18:12.549Z,1017.57
2016-07-18T01:18:22.543Z,1017.58
2016-07-18T01:18:32.539Z,1017.57
2016-07-18T01:18:42.532Z,1017.62
2016-07-18T01:18:52.528Z,1017.58
2016-07-18T01:19:02.529Z,1017.63
2016-07-18T01:19:12.519Z,1017.55
2016-07-18T01:19:22.516Z,1017.55
2016-07-18T01:19:32.519Z,1017.53
2016-07-18T01:19:42.507Z,1017.58
2016-07-18T01:19:52.501Z,1017.55
2016-07-18T01:20:02.495Z,1017.53
2016-07-18T01:20:12.492Z,1017.53
2016-07-18T01:20:22.484Z,1017.53
2016-07-18T01:20:32.488Z,1017.53
2016-07-18T01:20:42.476Z,1017.5
2016-07-18T01:20:53.199Z,1017.5
2016-07-18T01:21:02.467Z,1017.53
2016-07-18T01:21:12.462Z,1017.49
2016-07-18T01:21:22.458Z,1017.56
2016-07-18T01:21:32.453Z,1017.52
2016-07-18T01:21:42.448Z,1017.52
2016-07-18T01:21:52.442Z,1017.5
2016-07-18T01:22:02.437Z,1017.5
2016-07-18T01:22:12.434Z,1017.52
2016-07-18T01:22:22.427Z,1017.54
2016-07-18T01:22:32.424Z,1017.51
2016-07-18T01:22:42.419Z,1017.53
2016-07-18T01:22:52.415Z,1017.5
2016-07-18T01:23:02.412Z,1017.52
2016-07-18T01:23:12.412Z,1017.49
2016-07-18T01:23:22.400Z,1017.45
2016-07-18T01:23:32.402Z,1017.51
2016-07-18T01:23:42.391Z,1017.48
2016-07-18T01:23:52.385Z,1017.49
2016-07-18T01:24:02.381Z,1017.47
2016-07-18T01:24:12.375Z,1017.48
2016-07-18T01:24:22.369Z,1017.46
2016-07-18T01:24:32.367Z,1017.52
2016-07-18T01:24:42.359Z,1017.5
2016-07-18T01:24:52.362Z,1017.51
2016-07-18T01:25:02.354Z,1017.52
2016-07-18T01:25:12.347Z,1017.51
2016-07-18T01:25:22.342Z,1017.51
2016-07-18T01:25:32.337Z,1017.53
2016-07-18T01:25:42.334Z,1017.56
2016-07-18T01:25:52.328Z,1017.54
2016-07-18T01:26:02.324Z,1017.6
2016-07-18T01:26:12.320Z,1017.58
2016-07-18T01:26:22.315Z,1017.59
2016-07-18T01:26:32.310Z,1017.6
2016-07-18T01:26:42.304Z,1017.59
2016-07-18T01:26:52.301Z,1017.53
2016-07-18T01:27:02.293Z,1017.56
2016-07-18T01:27:12.290Z,1017.56
2016-07-18T01:27:22.286Z,1017.55
2016-07-18T01:27:32.280Z,1017.58
2016-07-18T01:27:42.274Z,1017.56
2016-07-18T01:27:52.272Z,1017.57
2016-07-18T01:28:02.267Z,1017.59
2016-07-18T01:28:12.262Z,1017.54
2016-07-18T01:28:22.257Z,1017.58
2016-07-18T01:28:32.251Z,1017.52
2016-07-18T01:28:42.246Z,1017.59
2016-07-18T01:28:52.243Z,1017.54
2016-07-18T01:29:02.243Z,1017.57
2016-07-18T01:29:12.233Z,1017.52
2016-07-18T01:29:22.229Z,1017.54
2016-07-18T01:29:32.224Z,1017.51
2016-07-18T01:29:42.219Z,1017.56
2016-07-18T01:29:52.215Z,1017.57
2016-07-18T01:30:02.210Z,1017.57
2016-07-18T01:30:12.203Z,1017.55
2016-07-18T01:30:22.201Z,1017.56
2016-07-18T01:30:32.194Z,1017.6
2016-07-18T01:30:42.190Z,1017.59
2016-07-18T01:30:52.185Z,1017.53
2016-07-18T01:31:02.183Z,1017.52
2016-07-18T01:31:12.177Z,1017.6
2016-07-18T01:31:22.168Z,1017.56
2016-07-18T01:31:32.163Z,1017.57
2016-07-18T01:31:42.161Z,1017.54
2016-07-18T01:31:52.156Z,1017.57
2016-07-18T01:32:02.150Z,1017.52
2016-07-18T01:32:12.145Z,1017.54
2016-07-18T01:32:22.140Z,1017.56
2016-07-18T01:32:32.136Z,1017.52
2016-07-18T01:32:42.131Z,1017.56
2016-07-18T01:32:52.128Z,1017.56
2016-07-18T01:33:02.124Z,1017.54
2016-07-18T01:33:12.119Z,1017.54
2016-07-18T01:33:22.116Z,1017.56
2016-07-18T01:33:32.110Z,1017.53
2016-07-18T01:33:42.110Z,1017.54
2016-07-18T01:33:52.100Z,1017.55
2016-07-18T01:34:02.096Z,1017.55
2016-07-18T01:34:12.091Z,1017.56
2016-07-18T01:34:22.084Z,1017.55
2016-07-18T01:34:32.078Z,1017.54
2016-07-18T01:34:42.076Z,1017.56
2016-07-18T01:34:52.080Z,1017.52
2016-07-18T01:35:02.066Z,1017.54
2016-07-18T01:35:12.060Z,1017.56
2016-07-18T01:35:22.054Z,1017.51
2016-07-18T01:35:32.052Z,1017.51
2016-07-18T01:35:42.046Z,1017.49
2016-07-18T01:35:52.041Z,1017.42
2016-07-18T01:36:02.765Z,1017.52
2016-07-18T01:36:12.031Z,1017.55
2016-07-18T01:36:22.023Z,1017.5
2016-07-18T01:36:32.753Z,1017.48
2016-07-18T01:36:42.018Z,1017.5
2016-07-18T01:36:52.014Z,1017.45
2016-07-18T01:37:02.009Z,1017.51
2016-07-18T01:37:12.004Z,1017.48
2016-07-18T01:37:21.999Z,1017.44
2016-07-18T01:37:31.994Z,1017.45
2016-07-18T01:37:41.990Z,1017.43
2016-07-18T01:37:51.992Z,1017.48
2016-07-18T01:38:01.976Z,1017.45
2016-07-18T01:38:11.973Z,1017.42
2016-07-18T01:38:21.970Z,1017.45
2016-07-18T01:38:31.961Z,1017.47
2016-07-18T01:38:41.960Z,1017.48
2016-07-18T01:38:51.960Z,1017.45
2016-07-18T01:39:01.950Z,1017.46
2016-07-18T01:39:11.946Z,1017.46
2016-07-18T01:39:21.940Z,1017.47
2016-07-18T01:39:31.936Z,1017.44
2016-07-18T01:39:41.931Z,1017.45
2016-07-18T01:39:51.929Z,1017.46
2016-07-18T01:40:02.684Z,1017.47
2016-07-18T01:40:11.917Z,1017.45
2016-07-18T01:40:21.914Z,1017.47
2016-07-18T01:40:31.909Z,1017.46
2016-07-18T01:40:41.903Z,1017.44
2016-07-18T01:40:51.898Z,1017.44
2016-07-18T01:41:01.891Z,1017.44
2016-07-18T01:41:11.889Z,1017.47
2016-07-18T01:41:21.883Z,1017.46
2016-07-18T01:41:31.878Z,1017.45
2016-07-18T01:41:41.872Z,1017.46
2016-07-18T01:41:51.869Z,1017.46
2016-07-18T01:42:01.865Z,1017.44
2016-07-18T01:42:11.858Z,1017.49
2016-07-18T01:42:21.854Z,1017.43
2016-07-18T01:42:31.848Z,1017.39
2016-07-18T01:42:41.845Z,1017.44
2016-07-18T01:42:51.839Z,1017.45
2016-07-18T01:43:01.835Z,1017.39
2016-07-18T01:43:11.831Z,1017.41
2016-07-18T01:43:21.826Z,1017.36
2016-07-18T01:43:31.822Z,1017.4
2016-07-18T01:43:41.817Z,1017.43
2016-07-18T01:43:51.810Z,1017.38
2016-07-18T01:44:01.807Z,1017.42
2016-07-18T01:44:11.802Z,1017.42
2016-07-18T01:44:21.797Z,1017.43
2016-07-18T01:44:31.790Z,1017.39
2016-07-18T01:44:41.785Z,1017.41
2016-07-18T01:44:51.782Z,1017.39
2016-07-18T01:45:01.779Z,1017.43
2016-07-18T01:45:11.774Z,1017.41
2016-07-18T01:45:21.770Z,1017.41
2016-07-18T01:45:31.761Z,1017.37
2016-07-18T01:45:41.759Z,1017.36
2016-07-18T01:45:51.755Z,1017.4
2016-07-18T01:46:01.749Z,1017.41
2016-07-18T01:46:11.744Z,1017.41
2016-07-18T01:46:21.737Z,1017.37
2016-07-18T01:46:31.733Z,1017.35
2016-07-18T01:46:41.730Z,1017.36
2016-07-18T01:46:51.724Z,1017.37
2016-07-18T01:47:01.721Z,1017.43
2016-07-18T01:47:11.717Z,1017.38
2016-07-18T01:47:21.709Z,1017.41
2016-07-18T01:47:31.709Z,1017.41
2016-07-18T01:47:41.702Z,1017.41
2016-07-18T01:47:51.698Z,1017.4
2016-07-18T01:48:01.693Z,1017.35
2016-07-18T01:48:11.684Z,1017.35
2016-07-18T01:48:21.681Z,1017.34
2016-07-18T01:48:31.677Z,1017.36
2016-07-18T01:48:41.672Z,1017.33
2016-07-18T01:48:51.667Z,1017.33
2016-07-18T01:49:01.661Z,1017.32
2016-07-18T01:49:11.656Z,1017.31
2016-07-18T01:49:21.651Z,1017.38
2016-07-18T01:49:31.648Z,1017.33
2016-07-18T01:49:41.643Z,1017.28
2016-07-18T01:49:51.640Z,1017.28
2016-07-18T01:50:01.633Z,1017.31
2016-07-18T01:50:11.629Z,1017.27
2016-07-18T01:50:21.624Z,1017.31
2016-07-18T01:50:31.618Z,1017.27
2016-07-18T01:50:41.615Z,1017.3
2016-07-18T01:50:51.610Z,1017.29
2016-07-18T01:51:01.612Z,1017.27
2016-07-18T01:51:11.601Z,1017.22
2016-07-18T01:51:21.604Z,1017.25
2016-07-18T01:51:31.595Z,1017.24
2016-07-18T01:51:41.587Z,1017.28
2016-07-18T01:51:51.582Z,1017.26
2016-07-18T01:52:01.581Z,1017.28
2016-07-18T01:52:11.571Z,1017.25
2016-07-18T01:52:21.569Z,1017.25
2016-07-18T01:52:31.562Z,1017.26
2016-07-18T01:52:41.555Z,1017.23
2016-07-18T01:52:51.551Z,1017.22
2016-07-18T01:53:01.548Z,1017.26
2016-07-18T01:53:11.551Z,1017.22
2016-07-18T01:53:21.538Z,1017.26
2016-07-18T01:53:32.262Z,1017.22
2016-07-18T01:53:41.529Z,1017.27
2016-07-18T01:53:51.526Z,1017.23
2016-07-18T01:54:01.520Z,1017.25
2016-07-18T01:54:11.514Z,1017.25
2016-07-18T01:54:21.510Z,1017.23
2016-07-18T01:54:31.506Z,1017.28
2016-07-18T01:54:41.499Z,1017.27
2016-07-18T01:54:51.494Z,1017.28
2016-07-18T01:55:01.490Z,1017.3
2016-07-18T01:55:11.485Z,1017.31
2016-07-18T01:55:21.483Z,1017.27
2016-07-18T01:55:31.477Z,1017.3
2016-07-18T01:55:41.470Z,1017.32
2016-07-18T01:55:51.466Z,1017.32
2016-07-18T01:56:01.461Z,1017.33
2016-07-18T01:56:11.455Z,1017.29
2016-07-18T01:56:21.455Z,1017.32
2016-07-18T01:56:31.448Z,1017.32
2016-07-18T01:56:41.442Z,1017.34
2016-07-18T01:56:51.438Z,1017.32
2016-07-18T01:57:01.434Z,1017.35
2016-07-18T01:57:11.428Z,1017.32
2016-07-18T01:57:21.423Z,1017.31
2016-07-18T01:57:31.419Z,1017.31
2016-07-18T01:57:41.415Z,1017.3
2016-07-18T01:57:52.149Z,1017.27
2016-07-18T01:58:01.405Z,1017.3
2016-07-18T01:58:11.400Z,1017.31
2016-07-18T01:58:21.395Z,1017.3
2016-07-18T01:58:31.388Z,1017.31
2016-07-18T01:58:41.383Z,1017.31
2016-07-18T01:58:51.379Z,1017.28
2016-07-18T01:59:01.375Z,1017.25
2016-07-18T01:59:11.367Z,1017.35
2016-07-18T01:59:21.366Z,1017.29
2016-07-18T01:59:31.360Z,1017.28
2016-07-18T01:59:41.355Z,1017.33
2016-07-18T01:59:51.349Z,1017.28
2016-07-18T02:00:01.347Z,1017.29
2016-07-18T02:00:11.338Z,1017.28
2016-07-18T02:00:21.334Z,1017.26
2016-07-18T02:00:31.332Z,1017.35
2016-07-18T02:00:41.329Z,1017.32
2016-07-18T02:00:51.322Z,1017.35
2016-07-18T02:01:01.320Z,1017.27
2016-07-18T02:01:11.314Z,1017.3
2016-07-18T02:01:21.309Z,1017.29